Time;durP1;ratioP1;P1;durP2;ratioP2;P2;SDS_P1;SDS_P2;PMS_P1;PMS_P2;Temp;Humidity;BMP_temperature;BMP_pressure;BME280_temperature;BME280_humidity;BME280_pressure;Samples;Min_cycle;Max_cycle;Signal;HPM_P1;HPM_P2
2023/10/24 00:01:28;;;;;;;4.20;2.78;;;13.40;99.90;;;;;;4973580;28;20223;-78
2023/10/24 00:03:56;;;;;;;3.50;2.42;;;13.40;99.90;;;;;;4987762;28;20212;-78
2023/10/24 00:06:25;;;;;;;6.20;2.15;;;13.40;99.90;;;;;;4979665;28;20199;-78
2023/10/24 00:08:52;;;;;;;3.08;1.90;;;13.40;99.90;;;;;;4997978;28;20559;-78
2023/10/24 00:11:19;;;;;;;3.58;2.03;;;13.40;99.90;;;;;;4979335;28;20690;-78
2023/10/24 00:13:47;;;;;;;4.95;2.28;;;13.40;99.90;;;;;;4979518;28;20197;-78
2023/10/24 00:16:15;;;;;;;3.90;2.10;;;13.40;99.90;;;;;;4973761;28;20221;-78
2023/10/24 00:18:42;;;;;;;4.35;2.17;;;13.40;99.90;;;;;;4976993;28;20212;-78
2023/10/24 00:21:10;;;;;;;3.72;1.80;;;13.50;99.90;;;;;;4996667;28;20228;-78
2023/10/24 00:23:39;;;;;;;4.05;2.28;;;13.50;99.90;;;;;;4979559;28;20646;-78
2023/10/24 00:26:06;;;;;;;5.30;2.40;;;13.50;99.90;;;;;;5000637;28;20205;-78
2023/10/24 00:28:34;;;;;;;4.95;2.10;;;13.60;99.90;;;;;;4976551;28;20212;-78
2023/10/24 00:31:03;;;;;;;5.60;2.60;;;13.60;99.90;;;;;;4983403;28;20227;-78
2023/10/24 00:33:31;;;;;;;2.67;2.08;;;13.60;99.90;;;;;;4979280;28;20196;-78
2023/10/24 00:35:58;;;;;;;3.38;2.03;;;13.70;99.90;;;;;;4991692;28;20231;-78
2023/10/24 00:38:26;;;;;;;3.95;2.20;;;13.70;99.90;;;;;;4972969;28;20212;-78
2023/10/24 00:40:55;;;;;;;3.40;2.00;;;13.70;99.90;;;;;;4995432;28;20220;-78
2023/10/24 00:43:22;;;;;;;2.58;1.92;;;13.70;99.90;;;;;;4994806;28;20215;-78
2023/10/24 00:45:50;;;;;;;4.32;2.35;;;13.80;99.90;;;;;;4977563;28;20215;-78
2023/10/24 00:48:18;;;;;;;5.85;2.63;;;13.70;99.90;;;;;;4977138;28;20196;-78
2023/10/24 00:50:46;;;;;;;3.75;2.50;;;13.80;99.90;;;;;;4995521;28;20224;-78
2023/10/24 00:53:13;;;;;;;3.35;2.28;;;13.80;99.90;;;;;;4975292;28;20197;-78
2023/10/24 00:55:42;;;;;;;4.88;2.17;;;13.80;99.90;;;;;;4971283;28;20208;-78
2023/10/24 00:58:11;;;;;;;8.10;2.60;;;13.80;99.90;;;;;;4976558;28;21928;-78
2023/10/24 01:00:42;;;;;;;3.58;2.40;;;13.80;99.90;;;;;;4977311;28;20221;-78
2023/10/24 01:03:10;;;;;;;4.20;2.42;;;13.90;99.90;;;;;;4977286;28;20203;-78
2023/10/24 01:05:39;;;;;;;4.80;2.58;;;13.90;99.90;;;;;;4977130;28;20208;-78
2023/10/24 01:08:06;;;;;;;4.18;2.10;;;13.90;99.90;;;;;;4963645;28;20201;-78
2023/10/24 01:10:34;;;;;;;3.33;2.55;;;13.90;99.90;;;;;;4986278;28;20229;-78
2023/10/24 01:13:02;;;;;;;5.03;2.42;;;13.90;99.90;;;;;;4968880;28;20204;-78
2023/10/24 01:15:31;;;;;;;5.28;2.35;;;13.90;99.90;;;;;;4968628;28;20669;-78
2023/10/24 01:17:58;;;;;;;5.90;2.40;;;13.90;99.90;;;;;;4966103;28;20223;-78
2023/10/24 01:20:26;;;;;;;4.43;2.10;;;13.90;99.90;;;;;;4959517;28;20240;-78
2023/10/24 01:22:54;;;;;;;4.57;2.67;;;13.90;99.90;;;;;;4972578;28;20203;-78
2023/10/24 01:25:24;;;;;;;3.38;2.20;;;13.90;99.90;;;;;;4980259;28;20200;-78
2023/10/24 01:27:54;;;;;;;3.63;2.13;;;13.90;99.90;;;;;;5003248;28;20196;-78
2023/10/24 01:30:22;;;;;;;4.35;2.40;;;14.00;99.90;;;;;;4969333;28;20205;-78
2023/10/24 01:32:49;;;;;;;6.05;1.98;;;14.00;99.90;;;;;;4976566;28;20207;-78
2023/10/24 01:35:17;;;;;;;3.40;2.03;;;13.90;99.90;;;;;;4989015;28;20208;-78
2023/10/24 01:37:44;;;;;;;3.40;2.00;;;13.90;99.90;;;;;;4968383;28;20220;-78
2023/10/24 01:40:13;;;;;;;2.90;2.20;;;14.00;99.90;;;;;;4991408;28;20211;-78
2023/10/24 01:42:41;;;;;;;3.75;2.20;;;14.00;99.90;;;;;;4991571;28;20203;-78
2023/10/24 01:45:08;;;;;;;4.35;2.10;;;13.90;99.90;;;;;;4992319;28;20651;-78
2023/10/24 01:47:36;;;;;;;2.35;1.70;;;14.00;99.90;;;;;;4972443;28;20207;-78
2023/10/24 01:50:04;;;;;;;2.70;2.05;;;14.00;99.90;;;;;;4970552;28;20565;-78
2023/10/24 01:52:32;;;;;;;3.28;2.03;;;14.00;99.90;;;;;;4992719;28;20215;-78
2023/10/24 01:55:00;;;;;;;5.28;2.28;;;14.00;99.90;;;;;;4982850;28;20204;-78
2023/10/24 01:57:28;;;;;;;3.47;1.88;;;14.00;99.90;;;;;;4980576;28;20220;-78
2023/10/24 01:59:56;;;;;;;2.28;1.77;;;14.00;99.90;;;;;;4979197;28;20205;-78
2023/10/24 02:02:23;;;;;;;2.80;2.08;;;14.00;99.90;;;;;;4975702;28;20228;-78
2023/10/24 02:04:51;;;;;;;2.33;1.52;;;14.00;99.90;;;;;;4975825;28;20211;-78
2023/10/24 02:07:19;;;;;;;2.38;1.60;;;14.00;99.90;;;;;;4971054;28;20195;-78
2023/10/24 02:09:47;;;;;;;2.33;1.65;;;14.00;99.90;;;;;;4986103;28;20219;-78
2023/10/24 02:12:14;;;;;;;3.00;1.92;;;14.00;99.90;;;;;;4973837;28;20224;-78
2023/10/24 02:14:43;;;;;;;3.22;1.60;;;14.00;99.90;;;;;;4990383;28;20206;-78
2023/10/24 02:17:11;;;;;;;4.88;1.83;;;14.00;99.90;;;;;;4976646;28;20224;-78
2023/10/24 02:19:38;;;;;;;2.80;1.50;;;14.00;99.90;;;;;;5003518;28;20197;-78
2023/10/24 02:22:06;;;;;;;2.38;1.50;;;14.00;99.90;;;;;;4975791;28;20228;-78
2023/10/24 02:24:33;;;;;;;2.22;1.40;;;14.00;99.90;;;;;;4987330;28;20196;-78
2023/10/24 02:27:01;;;;;;;2.88;2.00;;;14.00;99.90;;;;;;4985592;28;20553;-78
2023/10/24 02:29:32;;;;;;;3.05;1.70;;;14.00;99.90;;;;;;4977403;28;20204;-78
2023/10/24 02:32:01;;;;;;;2.67;1.23;;;14.00;99.90;;;;;;4966709;28;20227;-78
2023/10/24 02:34:28;;;;;;;2.55;1.40;;;14.00;99.90;;;;;;4980437;28;20208;-78
2023/10/24 02:36:56;;;;;;;3.13;1.33;;;14.00;99.90;;;;;;4976833;28;20238;-78
2023/10/24 02:39:23;;;;;;;2.50;1.48;;;14.00;99.90;;;;;;4986845;28;20212;-78
2023/10/24 02:41:52;;;;;;;1.92;1.38;;;14.00;99.90;;;;;;4977056;28;20229;-78
2023/10/24 02:44:20;;;;;;;4.30;1.58;;;14.00;99.90;;;;;;4985758;28;20205;-78
2023/10/24 02:46:48;;;;;;;2.95;1.85;;;14.00;99.90;;;;;;4990997;28;20200;-78
2023/10/24 02:49:16;;;;;;;3.53;1.42;;;14.00;99.90;;;;;;5005633;28;20208;-78
2023/10/24 02:51:44;;;;;;;3.25;1.38;;;14.00;99.90;;;;;;4973019;28;20221;-77
2023/10/24 02:54:12;;;;;;;3.25;1.73;;;14.00;99.90;;;;;;4992556;28;20200;-78
2023/10/24 02:56:39;;;;;;;3.05;1.60;;;14.00;99.90;;;;;;4977002;28;20207;-78
2023/10/24 02:59:06;;;;;;;2.40;1.50;;;13.90;99.90;;;;;;4992726;28;20655;-78
2023/10/24 03:01:34;;;;;;;2.55;1.58;;;14.00;99.90;;;;;;4998228;28;20216;-79
2023/10/24 03:04:01;;;;;;;2.92;1.50;;;14.00;99.90;;;;;;4989543;28;20188;-78
2023/10/24 03:06:30;;;;;;;2.05;1.60;;;14.00;99.90;;;;;;4978791;28;20201;-78
2023/10/24 03:08:58;;;;;;;3.53;1.40;;;14.00;99.90;;;;;;4980104;28;20682;-78
2023/10/24 03:11:25;;;;;;;2.53;1.55;;;14.00;99.90;;;;;;4984597;28;20234;-78
2023/10/24 03:13:53;;;;;;;5.47;1.83;;;14.00;99.90;;;;;;4998034;28;20204;-78
2023/10/24 03:16:22;;;;;;;2.53;1.55;;;14.00;99.90;;;;;;4983837;28;20208;-77
2023/10/24 03:18:51;;;;;;;3.47;1.75;;;14.00;99.90;;;;;;4993803;28;20224;-78
2023/10/24 03:21:20;;;;;;;2.17;1.83;;;14.00;99.90;;;;;;4982439;28;20243;-78
2023/10/24 03:23:49;;;;;;;3.15;1.90;;;14.00;99.90;;;;;;4981652;28;20208;-78
2023/10/24 03:26:16;;;;;;;2.50;1.70;;;13.90;99.90;;;;;;4996350;28;20223;-78
2023/10/24 03:28:44;;;;;;;2.33;1.80;;;13.90;99.90;;;;;;4998488;28;20670;-77
2023/10/24 03:31:12;;;;;;;2.85;1.75;;;13.90;99.90;;;;;;4982572;28;20220;-78
2023/10/24 03:33:40;;;;;;;2.00;1.77;;;13.90;99.90;;;;;;4969312;28;20201;-78
2023/10/24 03:36:12;;;;;;;3.75;1.70;;;13.90;99.90;;;;;;4990312;28;20212;-78
2023/10/24 03:38:39;;;;;;;3.22;1.80;;;13.90;99.90;;;;;;4979283;28;20227;-78
2023/10/24 03:41:08;;;;;;;2.97;1.90;;;13.90;99.90;;;;;;4988093;28;20231;-77
2023/10/24 03:43:36;;;;;;;2.20;2.00;;;13.90;99.90;;;;;;4993782;28;20201;-78
2023/10/24 03:46:07;;;;;;;4.70;1.90;;;13.90;99.90;;;;;;4979163;28;20201;-78
2023/10/24 03:48:34;;;;;;;3.08;2.20;;;13.90;99.90;;;;;;4994397;28;20201;-77
2023/10/24 03:51:02;;;;;;;3.08;2.08;;;13.90;99.90;;;;;;4994895;28;20225;-78
2023/10/24 03:53:29;;;;;;;4.65;2.38;;;13.90;99.90;;;;;;4992134;28;20204;-78
2023/10/24 03:55:58;;;;;;;3.30;1.88;;;13.90;99.90;;;;;;4981681;28;20213;-78
2023/10/24 03:58:27;;;;;;;3.72;1.90;;;13.90;99.90;;;;;;4965398;28;20212;-78
2023/10/24 04:00:55;;;;;;;3.42;2.25;;;13.80;99.90;;;;;;4980844;28;20220;-78
2023/10/24 04:03:23;;;;;;;4.50;2.45;;;13.80;99.90;;;;;;4998106;28;20599;-78
2023/10/24 04:05:50;;;;;;;2.90;2.30;;;13.80;99.90;;;;;;4990464;28;20200;-78
2023/10/24 04:08:18;;;;;;;4.22;2.40;;;13.80;99.90;;;;;;4971410;28;20208;-78
2023/10/24 04:10:45;;;;;;;2.38;1.98;;;13.80;99.90;;;;;;4995623;28;20224;-77
2023/10/24 04:13:12;;;;;;;3.28;2.88;;;13.80;99.90;;;;;;4986262;28;20207;-78
2023/10/24 04:15:41;;;;;;;3.05;2.70;;;13.80;99.90;;;;;;4980920;28;20215;-78
2023/10/24 04:18:10;;;;;;;4.05;2.92;;;13.80;99.90;;;;;;4989807;28;20690;-77
2023/10/24 04:20:41;;;;;;;5.40;2.83;;;13.70;99.90;;;;;;4993844;28;20239;-78
2023/10/24 04:23:14;;;;;;;3.28;2.88;;;13.70;99.90;;;;;;4989242;28;20215;-77
2023/10/24 04:25:41;;;;;;;3.92;2.70;;;13.70;99.90;;;;;;4989909;28;20224;-77
2023/10/24 04:28:09;;;;;;;2.60;2.40;;;13.70;99.90;;;;;;4985031;28;20185;-77
2023/10/24 04:30:41;;;;;;;3.50;2.55;;;13.70;99.90;;;;;;4994530;28;20220;-78
2023/10/24 04:33:08;;;;;;;3.05;2.38;;;13.60;99.90;;;;;;4986049;28;20205;-78
2023/10/24 04:35:43;;;;;;;2.47;2.10;;;13.60;99.90;;;;;;5010817;28;20211;-77
2023/10/24 04:38:10;;;;;;;2.20;2.08;;;13.60;99.90;;;;;;4993775;28;20238;-78
2023/10/24 04:40:39;;;;;;;3.97;2.10;;;13.60;99.90;;;;;;4977709;28;20224;-78
2023/10/24 04:43:10;;;;;;;3.22;2.17;;;13.50;99.90;;;;;;4973524;28;20209;-79
2023/10/24 04:45:38;;;;;;;2.67;1.90;;;13.50;99.90;;;;;;4991124;28;20212;-78
2023/10/24 04:48:07;;;;;;;2.05;1.75;;;13.50;99.90;;;;;;4988551;28;20211;-78
2023/10/24 04:50:38;;;;;;;3.60;2.60;;;13.50;99.90;;;;;;4990651;28;20224;-77
2023/10/24 04:53:06;;;;;;;4.72;2.22;;;13.50;99.90;;;;;;4989072;28;20216;-77
2023/10/24 04:55:34;;;;;;;2.58;1.90;;;13.50;99.90;;;;;;4984660;28;20562;-78
2023/10/24 04:58:03;;;;;;;2.47;2.20;;;13.50;99.90;;;;;;4986006;28;20578;-78
2023/10/24 05:00:31;;;;;;;3.25;1.92;;;13.50;99.90;;;;;;4973475;28;20220;-78
2023/10/24 05:02:58;;;;;;;3.65;2.10;;;13.50;99.90;;;;;;4978851;28;20204;-77
2023/10/24 05:05:27;;;;;;;3.78;2.10;;;13.50;99.90;;;;;;4973853;28;20211;-78
2023/10/24 05:07:55;;;;;;;3.03;2.30;;;13.50;99.90;;;;;;4971052;28;20200;-78
2023/10/24 05:10:37;;;;;;;2.78;2.25;;;13.50;99.90;;;;;;4961539;28;20227;-78
2023/10/24 05:13:06;;;;;;;3.35;2.63;;;13.50;99.90;;;;;;4982939;28;20192;-78
2023/10/24 05:15:33;;;;;;;2.40;1.90;;;13.40;99.90;;;;;;4987016;28;20203;-78
2023/10/24 05:18:00;;;;;;;4.05;1.95;;;13.40;99.90;;;;;;4980009;28;20200;-78
2023/10/24 05:20:29;;;;;;;2.90;2.05;;;13.40;99.90;;;;;;4985543;28;20244;-78
2023/10/24 05:22:57;;;;;;;2.47;1.98;;;13.40;99.90;;;;;;4973797;28;20555;-77
2023/10/24 05:25:24;;;;;;;2.42;1.70;;;13.40;99.90;;;;;;4986877;28;20220;-78
2023/10/24 05:27:51;;;;;;;2.10;1.90;;;13.40;99.90;;;;;;4987630;28;20203;-78
2023/10/24 05:30:19;;;;;;;3.15;1.90;;;13.40;99.90;;;;;;4964334;28;20205;-78
2023/10/24 05:32:46;;;;;;;3.08;2.20;;;13.40;99.90;;;;;;4965211;28;20208;-78
2023/10/24 05:35:14;;;;;;;4.40;1.73;;;13.40;99.90;;;;;;4987480;28;20201;-76
2023/10/24 05:37:42;;;;;;;2.47;1.80;;;13.40;99.90;;;;;;4970180;28;20201;-77
2023/10/24 05:40:11;;;;;;;2.83;1.70;;;13.40;99.90;;;;;;4973426;28;20235;-77
2023/10/24 05:42:38;;;;;;;1.42;1.33;;;13.30;99.90;;;;;;4979342;28;20211;-77
2023/10/24 05:45:06;;;;;;;2.22;1.80;;;13.30;99.90;;;;;;4974117;28;20200;-77
2023/10/24 05:47:34;;;;;;;2.30;1.65;;;13.30;99.90;;;;;;4985476;28;20196;-77
2023/10/24 05:50:01;;;;;;;2.15;1.85;;;13.40;99.90;;;;;;4972980;28;20542;-79
2023/10/24 05:52:28;;;;;;;3.13;1.70;;;13.30;99.90;;;;;;4973646;28;20694;-79
2023/10/24 05:54:57;;;;;;;2.47;1.50;;;13.30;99.90;;;;;;4968019;28;20203;-79
2023/10/24 05:57:25;;;;;;;2.40;1.60;;;13.30;99.90;;;;;;4980561;28;20200;-80
2023/10/24 05:59:52;;;;;;;2.70;1.83;;;13.30;99.90;;;;;;4963002;28;20228;-79
2023/10/24 06:02:20;;;;;;;1.67;1.35;;;13.30;99.90;;;;;;4965244;28;20228;-79
2023/10/24 06:04:47;;;;;;;2.05;1.80;;;13.30;99.90;;;;;;4963500;28;20209;-80
2023/10/24 06:07:15;;;;;;;2.53;1.45;;;13.30;99.90;;;;;;4980725;28;20216;-79
2023/10/24 06:09:42;;;;;;;2.55;1.58;;;13.30;99.90;;;;;;4988995;28;20665;-79
2023/10/24 06:12:11;;;;;;;2.13;1.70;;;13.20;99.90;;;;;;4973278;28;20239;-78
2023/10/24 06:14:39;;;;;;;1.98;1.58;;;13.20;99.90;;;;;;4973476;28;20215;-79
2023/10/24 06:17:06;;;;;;;1.58;1.40;;;13.20;99.90;;;;;;4987077;28;20219;-79
2023/10/24 06:19:39;;;;;;;2.20;1.08;;;13.20;99.90;;;;;;4985940;28;20228;-78
2023/10/24 06:22:07;;;;;;;1.70;1.40;;;13.20;99.90;;;;;;4972835;28;20227;-78
2023/10/24 06:24:34;;;;;;;1.70;1.60;;;13.20;99.90;;;;;;4969680;28;20205;-78
2023/10/24 06:27:02;;;;;;;2.55;1.98;;;13.20;99.90;;;;;;4971066;28;20212;-79
2023/10/24 06:29:32;;;;;;;2.57;1.60;;;13.20;99.90;;;;;;4964933;28;20205;-79
2023/10/24 06:32:00;;;;;;;1.73;1.37;;;13.20;99.90;;;;;;4989638;28;20223;-78
2023/10/24 06:34:27;;;;;;;2.05;1.63;;;13.20;99.90;;;;;;4974124;28;20290;-78
2023/10/24 06:36:55;;;;;;;1.60;1.50;;;13.20;99.90;;;;;;4992629;28;20207;-79
2023/10/24 06:39:22;;;;;;;2.80;1.40;;;13.20;99.90;;;;;;4968288;28;20208;-81
2023/10/24 06:41:52;;;;;;;2.33;1.50;;;13.20;99.90;;;;;;4989973;28;20225;-78
2023/10/24 06:44:23;;;;;;;2.92;1.70;;;13.20;99.90;;;;;;4974292;28;20196;-78
2023/10/24 06:46:51;;;;;;;3.03;1.73;;;13.20;99.90;;;;;;4975128;28;20232;-79
2023/10/24 06:49:19;;;;;;;2.25;1.80;;;13.20;99.90;;;;;;4978152;28;20192;-79
2023/10/24 06:51:46;;;;;;;2.83;2.03;;;13.20;99.90;;;;;;4976621;28;20231;-79
2023/10/24 06:54:14;;;;;;;3.13;1.70;;;13.20;99.90;;;;;;4975539;28;20663;-78
2023/10/24 06:56:41;;;;;;;2.60;2.10;;;13.20;99.90;;;;;;4976554;28;20204;-80
2023/10/24 06:59:08;;;;;;;2.57;1.80;;;13.20;99.90;;;;;;4989020;28;20220;-78
2023/10/24 07:01:36;;;;;;;3.13;2.00;;;13.20;99.90;;;;;;4992167;28;20228;-78
2023/10/24 07:04:05;;;;;;;3.85;1.50;;;13.20;99.90;;;;;;4989393;28;20200;-78
2023/10/24 07:06:32;;;;;;;3.15;2.10;;;13.20;99.90;;;;;;4977374;28;20215;-78
2023/10/24 07:09:00;;;;;;;2.05;1.83;;;13.20;99.90;;;;;;4977618;28;20200;-78
2023/10/24 07:11:27;;;;;;;3.17;1.80;;;13.20;99.90;;;;;;4991714;28;20212;-78
2023/10/24 07:13:55;;;;;;;3.10;1.50;;;13.20;99.90;;;;;;4994030;28;20208;-78
2023/10/24 07:16:22;;;;;;;2.33;1.70;;;13.20;99.90;;;;;;4995396;28;20204;-78
2023/10/24 07:18:50;;;;;;;1.63;1.40;;;13.10;99.90;;;;;;4988889;28;20204;-78
2023/10/24 07:21:18;;;;;;;2.00;1.50;;;13.10;99.90;;;;;;4973305;28;20254;-78
2023/10/24 07:23:46;;;;;;;4.13;1.73;;;13.10;99.90;;;;;;5005032;28;20196;-78
2023/10/24 07:26:13;;;;;;;1.60;1.50;;;13.10;99.90;;;;;;4975203;28;20215;-78
2023/10/24 07:28:41;;;;;;;3.38;1.52;;;13.20;99.90;;;;;;4988867;28;20216;-78
2023/10/24 07:31:08;;;;;;;2.45;1.73;;;13.20;99.90;;;;;;4987496;28;20220;-78
2023/10/24 07:33:36;;;;;;;3.00;1.88;;;13.20;99.90;;;;;;4991423;28;20211;-78
2023/10/24 07:36:06;;;;;;;2.75;1.90;;;13.20;99.90;;;;;;4996264;28;20228;-78
2023/10/24 07:38:36;;;;;;;3.33;2.30;;;13.20;99.90;;;;;;4980508;28;20200;-78
2023/10/24 07:41:03;;;;;;;2.33;1.77;;;13.20;99.90;;;;;;4978235;28;20221;-78
2023/10/24 07:43:31;;;;;;;2.37;1.60;;;13.20;99.90;;;;;;4975010;28;20215;-78
2023/10/24 07:45:59;;;;;;;2.90;1.85;;;13.20;99.90;;;;;;4994555;28;20204;-78
2023/10/24 07:48:26;;;;;;;2.30;1.65;;;13.30;99.90;;;;;;4971276;28;20201;-77
2023/10/24 07:50:55;;;;;;;2.67;1.60;;;13.20;99.90;;;;;;4974342;28;20231;-78
2023/10/24 07:53:24;;;;;;;1.73;1.52;;;13.20;99.90;;;;;;4993537;28;20199;-78
2023/10/24 07:55:53;;;;;;;3.83;1.70;;;13.30;99.90;;;;;;4980837;28;20200;-78
2023/10/24 07:58:21;;;;;;;3.58;1.80;;;13.30;99.90;;;;;;4992467;28;20212;-77
2023/10/24 08:00:49;;;;;;;1.65;1.38;;;13.30;99.90;;;;;;4991790;28;20590;-77
2023/10/24 08:03:18;;;;;;;2.35;1.50;;;13.30;99.90;;;;;;4973193;28;20251;-77
2023/10/24 08:05:45;;;;;;;1.80;1.70;;;13.30;99.90;;;;;;4987936;28;20251;-77
2023/10/24 08:08:13;;;;;;;2.67;2.00;;;13.30;99.90;;;;;;4991181;28;20207;-78
2023/10/24 08:10:40;;;;;;;3.83;1.67;;;13.30;99.90;;;;;;4989614;28;20220;-79
2023/10/24 08:13:09;;;;;;;3.40;1.35;;;13.30;99.90;;;;;;4969549;28;20201;-78
2023/10/24 08:15:36;;;;;;;2.83;1.45;;;13.30;99.90;;;;;;4977687;28;20685;-79
2023/10/24 08:18:04;;;;;;;2.33;1.50;;;13.30;99.90;;;;;;4998327;28;20204;-78
2023/10/24 08:20:32;;;;;;;3.05;1.50;;;13.30;99.90;;;;;;4991198;28;20231;-79
2023/10/24 08:23:00;;;;;;;1.63;1.23;;;13.30;99.90;;;;;;4978825;28;20203;-79
2023/10/24 08:25:27;;;;;;;2.20;1.70;;;13.30;99.90;;;;;;4976902;28;20211;-78
2023/10/24 08:27:55;;;;;;;1.60;1.17;;;13.30;99.90;;;;;;5002617;28;20210;-79
2023/10/24 08:30:23;;;;;;;3.83;1.60;;;13.30;99.90;;;;;;4993232;28;20681;-78
2023/10/24 08:33:20;;;;;;;2.27;1.50;;;13.30;99.90;;;;;;4976552;28;20209;-78
2023/10/24 08:35:48;;;;;;;3.90;1.40;;;13.30;99.90;;;;;;4970248;28;20216;-78
2023/10/24 08:38:26;;;;;;;1.60;1.50;;;13.30;99.90;;;;;;4997641;28;20201;-78
2023/10/24 08:40:54;;;;;;;2.67;1.50;;;13.30;99.90;;;;;;4967149;28;20231;-79
2023/10/24 08:43:21;;;;;;;1.90;1.65;;;13.40;99.90;;;;;;4992233;28;20201;-79
2023/10/24 08:45:52;;;;;;;2.83;1.43;;;13.40;99.90;;;;;;4975917;28;20196;-78
2023/10/24 08:48:20;;;;;;;2.50;1.53;;;13.40;99.90;;;;;;4973165;28;20196;-78
2023/10/24 08:50:47;;;;;;;3.08;1.27;;;13.40;99.90;;;;;;4972073;28;20220;-79
2023/10/24 08:53:16;;;;;;;2.38;1.50;;;13.40;99.90;;;;;;4977168;28;20200;-78
2023/10/24 08:55:49;;;;;;;2.53;1.42;;;13.40;99.90;;;;;;4983119;28;20212;-79
2023/10/24 08:58:18;;;;;;;3.53;1.67;;;13.30;99.90;;;;;;4990778;28;20208;-78
2023/10/24 09:00:47;;;;;;;4.22;2.20;;;13.40;99.90;;;;;;4990268;28;20316;-78
2023/10/24 09:03:17;;;;;;;1.38;1.25;;;13.40;99.90;;;;;;4998962;28;20204;-78
2023/10/24 09:05:46;;;;;;;1.45;1.35;;;13.40;99.90;;;;;;4998638;28;20196;-79
2023/10/24 09:08:15;;;;;;;2.10;1.20;;;13.40;99.90;;;;;;4991247;28;20216;-77
2023/10/24 09:10:42;;;;;;;1.10;1.00;;;13.40;99.90;;;;;;4974852;28;20578;-78
2023/10/24 09:13:10;;;;;;;2.00;1.33;;;13.40;99.90;;;;;;4994392;28;20204;-78
2023/10/24 09:15:39;;;;;;;1.90;1.60;;;13.40;99.90;;;;;;4973366;28;20208;-78
2023/10/24 09:18:06;;;;;;;1.73;1.30;;;13.50;99.90;;;;;;4990317;28;20207;-78
2023/10/24 09:20:36;;;;;;;1.60;1.27;;;13.50;99.90;;;;;;4989171;28;20232;-79
2023/10/24 09:23:06;;;;;;;1.75;1.50;;;13.50;99.90;;;;;;4991469;28;20203;-78
2023/10/24 09:25:33;;;;;;;3.70;1.52;;;13.60;99.90;;;;;;4992577;28;20196;-77
2023/10/24 09:28:17;;;;;;;1.73;1.33;;;13.60;99.90;;;;;;4990590;28;20208;-78
2023/10/24 09:30:45;;;;;;;1.42;1.08;;;13.60;99.90;;;;;;4985352;28;20226;-78
2023/10/24 09:33:12;;;;;;;3.50;1.30;;;13.60;99.90;;;;;;4975864;28;20211;-78
2023/10/24 09:35:41;;;;;;;1.50;1.13;;;13.70;99.90;;;;;;4985946;28;20208;-79
2023/10/24 09:38:09;;;;;;;1.83;1.50;;;13.70;99.90;;;;;;4977054;28;20216;-79
2023/10/24 09:40:37;;;;;;;2.65;1.70;;;13.70;99.90;;;;;;4975737;28;20620;-78
2023/10/24 09:43:11;;;;;;;2.08;1.33;;;13.70;99.90;;;;;;4964545;28;20200;-78
2023/10/24 09:45:41;;;;;;;2.03;1.55;;;13.70;99.90;;;;;;4988182;28;20244;-78
2023/10/24 09:48:11;;;;;;;1.75;1.60;;;13.70;99.90;;;;;;4977559;28;20211;-78
2023/10/24 09:50:41;;;;;;;3.75;1.83;;;13.70;99.90;;;;;;4987919;28;20216;-78
2023/10/24 09:53:10;;;;;;;3.80;2.20;;;13.70;99.90;;;;;;4971137;28;20189;-78
2023/10/24 09:55:41;;;;;;;2.85;1.67;;;13.70;99.90;;;;;;4972892;28;20196;-79
2023/10/24 09:58:10;;;;;;;4.72;2.03;;;13.80;99.90;;;;;;4968027;28;20209;-79
2023/10/24 10:00:37;;;;;;;4.10;1.80;;;13.80;99.90;;;;;;4972327;28;20228;-78
2023/10/24 10:03:06;;;;;;;1.85;1.52;;;13.80;99.90;;;;;;4967835;28;20216;-79
2023/10/24 10:05:33;;;;;;;1.40;1.30;;;13.90;99.90;;;;;;4976197;28;20193;-81
2023/10/24 10:08:05;;;;;;;2.05;1.45;;;13.90;99.90;;;;;;4958660;28;20208;-80
2023/10/24 10:10:34;;;;;;;2.33;1.30;;;14.00;99.90;;;;;;4971564;28;20224;-79
2023/10/24 10:13:06;;;;;;;1.70;1.20;;;14.00;99.90;;;;;;4959144;28;20211;-79
2023/10/24 10:15:56;;;;;;;1.75;1.50;;;14.00;99.90;;;;;;4958375;28;20204;-80
2023/10/24 10:18:44;;;;;;;1.90;1.40;;;14.10;99.90;;;;;;4953877;28;20736;-80
2023/10/24 10:21:25;;;;;;;3.03;1.30;;;14.10;99.90;;;;;;4954401;28;20228;-80
2023/10/24 10:24:08;;;;;;;3.65;1.75;;;14.10;99.90;;;;;;4960855;28;20217;-80
2023/10/24 10:26:52;;;;;;;2.33;1.40;;;14.30;99.90;;;;;;4975750;28;20200;-80
2023/10/24 10:29:26;;;;;;;2.58;1.73;;;14.40;99.90;;;;;;4973741;28;20201;-80
2023/10/24 10:32:07;;;;;;;1.40;1.30;;;14.60;99.90;;;;;;4958318;28;20232;-78
2023/10/24 10:34:37;;;;;;;2.97;1.83;;;14.60;99.90;;;;;;4957765;28;20208;-79
2023/10/24 10:37:05;;;;;;;1.90;1.60;;;14.50;99.90;;;;;;4984714;28;20283;-80
2023/10/24 10:39:33;;;;;;;1.65;1.55;;;14.60;99.90;;;;;;4962569;28;21705;-80
2023/10/24 10:42:01;;;;;;;2.72;1.90;;;14.40;99.90;;;;;;4957383;28;20248;-80
2023/10/24 10:44:37;;;;;;;4.03;2.35;;;14.50;99.90;;;;;;4974680;28;20200;-78
2023/10/24 10:47:05;;;;;;;2.75;2.00;;;14.50;99.90;;;;;;4955919;28;20200;-79
2023/10/24 10:49:48;;;;;;;2.58;1.90;;;14.60;99.90;;;;;;4974551;28;20193;-80
2023/10/24 10:52:42;;;;;;;1.95;1.85;;;14.60;99.90;;;;;;4977817;28;20212;-80
2023/10/24 10:55:45;;;;;;;2.40;2.10;;;14.60;99.90;;;;;;4957318;28;20201;-80
2023/10/24 10:58:35;;;;;;;2.08;1.70;;;14.40;99.90;;;;;;4960550;28;20209;-80
2023/10/24 11:01:08;;;;;;;2.33;2.13;;;14.50;99.90;;;;;;4977583;28;20253;-79
2023/10/24 11:03:41;;;;;;;3.50;1.90;;;14.50;99.90;;;;;;4957563;28;20679;-81
2023/10/24 11:06:14;;;;;;;2.40;2.00;;;14.60;99.90;;;;;;4957250;28;20208;-80
2023/10/24 11:08:42;;;;;;;1.95;1.77;;;14.50;99.90;;;;;;4973134;28;20197;-80
2023/10/24 11:11:11;;;;;;;4.95;2.33;;;14.60;99.90;;;;;;4977494;28;20224;-79
2023/10/24 11:13:41;;;;;;;3.47;2.40;;;14.60;99.90;;;;;;4966299;28;20212;-79
2023/10/24 11:16:10;;;;;;;2.33;1.88;;;14.70;99.90;;;;;;4965672;28;20216;-79
2023/10/24 11:18:38;;;;;;;2.78;1.85;;;15.30;99.90;;;;;;4977985;28;20201;-79
2023/10/24 11:21:07;;;;;;;2.03;1.80;;;15.60;99.90;;;;;;4956689;28;20229;-79
2023/10/24 11:23:35;;;;;;;2.90;1.85;;;15.60;99.90;;;;;;4971176;28;20568;-79
2023/10/24 11:26:03;;;;;;;4.63;2.15;;;15.40;99.90;;;;;;4969921;28;20205;-79
2023/10/24 11:28:32;;;;;;;3.55;1.70;;;15.30;99.90;;;;;;4955614;28;20205;-79
2023/10/24 11:31:18;;;;;;;2.90;1.80;;;15.50;99.90;;;;;;4957524;28;20225;-79
2023/10/24 11:33:46;;;;;;;1.70;1.60;;;15.20;99.90;;;;;;4974863;28;20211;-79
2023/10/24 11:36:13;;;;;;;1.88;1.73;;;15.40;99.90;;;;;;4972005;28;20189;-78
2023/10/24 11:38:41;;;;;;;2.22;1.42;;;15.10;99.90;;;;;;4969799;28;20201;-80
2023/10/24 11:41:09;;;;;;;1.92;1.67;;;14.90;99.90;;;;;;4979922;28;20221;-79
2023/10/24 11:43:38;;;;;;;1.60;1.50;;;14.80;99.90;;;;;;4978757;28;20193;-79
2023/10/24 11:46:05;;;;;;;2.60;2.40;;;14.70;99.90;;;;;;4985269;28;20197;-79
2023/10/24 11:48:33;;;;;;;2.25;2.03;;;14.60;99.90;;;;;;4985512;28;20189;-79
2023/10/24 11:51:03;;;;;;;2.45;1.73;;;14.50;99.90;;;;;;4967330;28;20233;-79
2023/10/24 11:53:30;;;;;;;3.05;2.05;;;14.50;99.90;;;;;;4966918;28;20220;-79
2023/10/24 11:55:58;;;;;;;2.63;1.95;;;14.60;99.90;;;;;;4977654;28;20216;-79
2023/10/24 11:58:32;;;;;;;2.00;1.90;;;14.70;99.90;;;;;;4960575;28;20204;-79
2023/10/24 12:01:01;;;;;;;2.75;1.90;;;14.70;99.90;;;;;;4965237;28;20224;-79
2023/10/24 12:03:46;;;;;;;3.00;1.92;;;14.70;99.90;;;;;;4960013;28;20232;-80
2023/10/24 12:06:16;;;;;;;2.30;2.10;;;14.70;99.90;;;;;;4963423;28;20200;-79
2023/10/24 12:08:45;;;;;;;4.05;2.25;;;14.70;99.90;;;;;;4980791;28;20197;-80
2023/10/24 12:11:13;;;;;;;2.75;2.05;;;14.60;99.90;;;;;;4982658;28;20224;-79
2023/10/24 12:13:41;;;;;;;3.05;2.20;;;14.60;99.90;;;;;;4981329;28;20213;-79
2023/10/24 12:16:10;;;;;;;2.28;2.08;;;14.60;99.90;;;;;;4983521;28;20204;-80
2023/10/24 12:18:38;;;;;;;2.92;2.10;;;14.60;99.90;;;;;;4962574;28;20205;-79
2023/10/24 12:21:07;;;;;;;3.30;2.30;;;14.50;99.90;;;;;;4959423;28;20229;-79
2023/10/24 12:23:35;;;;;;;2.47;2.28;;;14.50;99.90;;;;;;4961262;28;20224;-79
2023/10/24 12:26:05;;;;;;;3.55;2.42;;;14.50;99.90;;;;;;4977729;28;20200;-79
2023/10/24 12:28:34;;;;;;;2.40;2.20;;;14.50;99.90;;;;;;4958385;28;20217;-80
2023/10/24 12:31:01;;;;;;;5.82;2.15;;;14.40;99.90;;;;;;4958174;28;20221;-79
2023/10/24 12:33:30;;;;;;;4.28;2.47;;;14.40;99.90;;;;;;4962532;28;20193;-80
2023/10/24 12:35:57;;;;;;;3.60;2.22;;;14.30;99.90;;;;;;4977701;28;20193;-81
2023/10/24 12:38:25;;;;;;;1.70;1.60;;;14.30;99.90;;;;;;4961863;28;20217;-80
2023/10/24 12:40:52;;;;;;;2.60;2.05;;;14.20;99.90;;;;;;4963983;28;20231;-80
2023/10/24 12:43:20;;;;;;;3.08;1.88;;;14.00;99.90;;;;;;4972845;28;20225;-80
2023/10/24 12:45:47;;;;;;;3.47;2.20;;;14.00;99.90;;;;;;4955998;28;20213;-80
2023/10/24 12:48:15;;;;;;;3.28;2.83;;;13.90;99.90;;;;;;4980937;28;20228;-80
2023/10/24 12:50:44;;;;;;;3.30;3.00;;;13.60;99.90;;;;;;4972131;28;20218;-80
2023/10/24 12:53:12;;;;;;;3.17;2.45;;;13.60;99.90;;;;;;4980354;28;20193;-80
2023/10/24 12:55:40;;;;;;;2.88;2.58;;;13.50;99.90;;;;;;4953509;28;20667;-80
2023/10/24 12:58:07;;;;;;;3.45;2.38;;;13.40;99.90;;;;;;4975091;28;20212;-80